Time,TemperatureF,DewpointF,PressureIn,WindDirection,WindDirectionDegrees,WindSpeedMPH,WindSpeedGustMPH,Humidity,HourlyPrecipIn,Conditions,Clouds,dailyrainin,SolarRadiationWatts/m^2,SoftwareType,DateUTC
2013-02-08 00:02:00,10.0,-9.0,-100.00,NE,53,5.0,11.0,41,0.00,,,0.00,0.000000,,2013-02-08 05:02:00,
2013-02-08 00:12:00,10.0,-9.0,-100.00,NE,53,5.0,11.0,41,0.00,,,0.00,0.000000,,2013-02-08 05:12:00,
2013-02-08 00:22:00,10.0,-9.0,-100.00,NE,53,5.0,11.0,41,0.00,,,0.00,0.000000,,2013-02-08 05:22:00,
2013-02-08 00:32:00,10.0,-9.0,-100.00,NE,53,5.0,11.0,41,0.00,,,0.00,0.000000,,2013-02-08 05:32:00,
2013-02-08 01:02:00,10.0,-8.0,-100.00,ENE,62,5.0,12.0,42,0.00,,,0.00,0.000000,,2013-02-08 06:02:00,
2013-02-08 01:32:00,10.0,-8.0,-100.00,ENE,62,5.0,12.0,42,0.00,,,0.00,0.000000,,2013-02-08 06:32:00,
2013-02-08 02:02:00,12.0,-2.0,-100.00,NE,53,4.0,11.0,52,0.00,,,0.00,0.000000,,2013-02-08 07:02:00,
2013-02-08 02:12:00,12.0,-2.0,-100.00,NE,53,4.0,11.0,52,0.00,,,0.00,0.000000,,2013-02-08 07:12:00,
2013-02-08 02:22:00,12.0,-2.0,-100.00,NE,53,4.0,11.0,52,0.00,,,0.00,0.000000,,2013-02-08 07:22:00,
2013-02-08 02:32:00,12.0,-2.0,-100.00,NE,53,4.0,11.0,52,0.00,,,0.00,0.000000,,2013-02-08 07:32:00,
2013-02-08 03:01:00,12.0,-1.0,-100.00,ENE,57,5.0,9.0,55,0.00,,,0.00,0.000000,,2013-02-08 08:01:00,
2013-02-08 03:11:00,12.0,-1.0,-100.00,ENE,57,5.0,9.0,55,0.00,,,0.00,0.000000,,2013-02-08 08:11:00,
2013-02-08 03:22:00,12.0,-1.0,-100.00,ENE,57,5.0,9.0,55,0.00,,,0.00,0.000000,,2013-02-08 08:22:00,
2013-02-08 03:32:00,12.0,-1.0,-100.00,ENE,57,5.0,9.0,55,0.00,,,0.00,0.000000,,2013-02-08 08:32:00,
2013-02-08 03:52:00,12.0,2.0,-100.00,NE,51,7.0,14.0,63,0.00,,,0.00,0.000000,,2013-02-08 08:52:00,
2013-02-08 04:03:00,12.0,2.0,-100.00,NE,51,7.0,14.0,63,0.00,,,0.00,0.000000,,2013-02-08 09:03:00,
2013-02-08 04:11:00,12.0,2.0,-100.00,NE,51,7.0,14.0,63,0.00,,,0.00,0.000000,,2013-02-08 09:11:00,
2013-02-08 04:21:00,12.0,2.0,-100.00,NE,51,7.0,14.0,63,0.00,,,0.00,0.000000,,2013-02-08 09:21:00,
2013-02-08 04:32:00,12.0,2.0,-100.00,NE,51,7.0,14.0,63,0.00,,,0.00,0.000000,,2013-02-08 09:32:00,
2013-02-08 05:01:00,12.0,3.0,-100.00,ENE,65,7.0,15.0,67,0.00,,,0.00,0.000000,,2013-02-08 10:01:00,
2013-02-08 05:12:00,12.0,3.0,-100.00,ENE,65,7.0,15.0,67,0.00,,,0.00,0.000000,,2013-02-08 10:12:00,
2013-02-08 05:22:00,12.0,3.0,-100.00,ENE,65,7.0,15.0,67,0.00,,,0.00,0.000000,,2013-02-08 10:22:00,
2013-02-08 05:32:00,12.0,3.0,-100.00,ENE,65,7.0,15.0,67,0.00,,,0.00,0.000000,,2013-02-08 10:32:00,
2013-02-08 06:02:00,12.0,5.0,-100.00,NE,52,7.0,15.0,72,0.00,,,0.00,0.000000,,2013-02-08 11:02:00,
2013-02-08 06:11:00,12.0,5.0,-100.00,NE,52,7.0,15.0,72,0.00,,,0.00,0.000000,,2013-02-08 11:11:00,
2013-02-08 06:22:00,12.0,5.0,-100.00,NE,52,7.0,15.0,72,0.00,,,0.00,0.000000,,2013-02-08 11:22:00,
2013-02-08 06:32:00,12.0,5.0,-100.00,NE,52,7.0,15.0,72,0.00,,,0.00,0.000000,,2013-02-08 11:32:00,
2013-02-08 06:53:00,12.0,7.0,-100.00,ENE,60,7.0,14.0,79,0.00,,,0.00,0.000000,,2013-02-08 11:53:00,
2013-02-08 07:02:00,12.0,7.0,-100.00,ENE,60,7.0,14.0,79,0.00,,,0.00,0.000000,,2013-02-08 12:02:00,
2013-02-08 07:11:00,12.0,7.0,-100.00,ENE,60,7.0,14.0,79,0.00,,,0.00,0.000000,,2013-02-08 12:11:00,
2013-02-08 07:22:00,12.0,7.0,-100.00,ENE,60,7.0,14.0,79,0.00,,,0.00,0.000000,,2013-02-08 12:22:00,
2013-02-08 07:33:00,12.0,7.0,-100.00,ENE,60,7.0,14.0,79,0.00,,,0.00,0.000000,,2013-02-08 12:33:00,
2013-02-08 07:52:00,13.0,7.0,-100.00,ENE,58,8.0,15.0,78,0.00,,,0.00,10.000000,,2013-02-08 12:52:00,
2013-02-08 08:02:00,13.0,7.0,-100.00,ENE,58,8.0,15.0,78,0.00,,,0.00,10.000000,,2013-02-08 13:02:00,
2013-02-08 08:12:00,13.0,7.0,-100.00,ENE,58,8.0,15.0,78,0.00,,,0.00,10.000000,,2013-02-08 13:12:00,
2013-02-08 08:22:00,13.0,7.0,-100.00,ENE,58,8.0,15.0,78,0.00,,,0.00,10.000000,,2013-02-08 13:22:00,
2013-02-08 08:32:00,13.0,7.0,-100.00,ENE,58,8.0,15.0,78,0.00,,,0.00,10.000000,,2013-02-08 13:32:00,
2013-02-08 09:02:00,14.0,10.0,-100.00,ENE,61,6.0,15.0,82,0.00,,,0.00,30.000000,,2013-02-08 14:02:00,
2013-02-08 09:11:00,14.0,10.0,-100.00,ENE,61,6.0,15.0,82,0.00,,,0.00,30.000000,,2013-02-08 14:11:00,
2013-02-08 09:22:00,14.0,10.0,-100.00,ENE,61,6.0,15.0,82,0.00,,,0.00,30.000000,,2013-02-08 14:22:00,
2013-02-08 09:32:00,14.0,10.0,-100.00,ENE,61,6.0,15.0,82,0.00,,,0.00,30.000000,,2013-02-08 14:32:00,
2013-02-08 09:52:00,16.0,12.0,-100.00,ENE,69,7.0,15.0,84,0.00,,,0.00,72.000000,,2013-02-08 14:52:00,
2013-02-08 10:02:00,16.0,12.0,-100.00,ENE,69,7.0,15.0,84,0.00,,,0.00,72.000000,,2013-02-08 15:02:00,
2013-02-08 10:12:00,16.0,12.0,-100.00,ENE,69,7.0,15.0,84,0.00,,,0.00,72.000000,,2013-02-08 15:12:00,
2013-02-08 10:22:00,16.0,12.0,-100.00,ENE,69,7.0,15.0,84,0.00,,,0.00,72.000000,,2013-02-08 15:22:00,
2013-02-08 10:32:00,16.0,12.0,-100.00,ENE,69,7.0,15.0,84,0.00,,,0.00,72.000000,,2013-02-08 15:32:00,
2013-02-08 11:02:00,18.0,14.0,-100.00,NE,54,7.0,15.0,84,0.00,,,0.00,144.000000,,2013-02-08 16:02:00,
2013-02-08 11:11:00,18.0,14.0,-100.00,NE,54,7.0,15.0,84,0.00,,,0.00,144.000000,,2013-02-08 16:11:00,
2013-02-08 11:22:00,18.0,14.0,-100.00,NE,54,7.0,15.0,84,0.00,,,0.00,144.000000,,2013-02-08 16:22:00,
2013-02-08 11:32:00,18.0,14.0,-100.00,NE,54,7.0,15.0,84,0.00,,,0.00,144.000000,,2013-02-08 16:32:00,
2013-02-08 11:52:00,20.0,16.0,-100.00,ENE,66,9.0,20.0,83,0.00,,,0.00,172.000000,,2013-02-08 16:52:00,
2013-02-08 12:04:00,20.0,16.0,-100.00,ENE,66,9.0,20.0,83,0.00,,,0.00,172.000000,,2013-02-08 17:04:00,
2013-02-08 12:12:00,20.0,16.0,-100.00,ENE,66,9.0,20.0,83,0.00,,,0.00,172.000000,,2013-02-08 17:12:00,
2013-02-08 12:23:00,20.0,16.0,-100.00,ENE,66,9.0,20.0,83,0.00,,,0.00,172.000000,,2013-02-08 17:23:00,
2013-02-08 12:33:00,20.0,16.0,-100.00,ENE,66,9.0,20.0,83,0.00,,,0.00,172.000000,,2013-02-08 17:33:00,
2013-02-08 13:03:00,21.0,17.0,-100.00,ENE,60,9.0,18.0,85,0.00,,,0.00,169.000000,,2013-02-08 18:03:00,
2013-02-08 13:12:00,21.0,17.0,-100.00,ENE,60,9.0,18.0,85,0.00,,,0.00,169.000000,,2013-02-08 18:12:00,
2013-02-08 13:25:00,21.0,17.0,-100.00,ENE,60,9.0,18.0,85,0.00,,,0.00,169.000000,,2013-02-08 18:25:00,
2013-02-08 13:35:00,21.0,17.0,-100.00,ENE,60,9.0,18.0,85,0.00,,,0.00,169.000000,,2013-02-08 18:35:00,
2013-02-08 14:02:00,24.0,20.0,-100.00,East,82,8.0,22.0,83,0.00,,,0.00,117.000000,,2013-02-08 19:02:00,
2013-02-08 14:12:00,24.0,20.0,-100.00,East,82,8.0,22.0,83,0.00,,,0.00,117.000000,,2013-02-08 19:12:00,
2013-02-08 14:22:00,24.0,20.0,-100.00,East,82,8.0,22.0,83,0.00,,,0.00,117.000000,,2013-02-08 19:22:00,
2013-02-08 14:32:00,24.0,20.0,-100.00,East,82,8.0,22.0,83,0.00,,,0.00,117.000000,,2013-02-08 19:32:00,
2013-02-08 15:02:00,23.0,17.0,-100.00,East,92,10.0,22.0,79,0.00,,,0.00,129.000000,,2013-02-08 20:02:00,
2013-02-08 15:12:00,23.0,17.0,-100.00,East,92,10.0,22.0,79,0.00,,,0.00,129.000000,,2013-02-08 20:12:00,
2013-02-08 15:22:00,23.0,17.0,-100.00,East,92,10.0,22.0,79,0.00,,,0.00,129.000000,,2013-02-08 20:22:00,
2013-02-08 15:32:00,23.0,17.0,-100.00,East,92,10.0,22.0,79,0.00,,,0.00,129.000000,,2013-02-08 20:32:00,
2013-02-08 16:02:00,23.0,19.0,-100.00,ENE,71,10.0,24.0,83,0.00,,,0.00,48.000000,,2013-02-08 21:02:00,
2013-02-08 16:12:00,23.0,19.0,-100.00,ENE,71,10.0,24.0,83,0.00,,,0.00,48.000000,,2013-02-08 21:12:00,
2013-02-08 16:22:00,23.0,19.0,-100.00,ENE,71,10.0,24.0,83,0.00,,,0.00,48.000000,,2013-02-08 21:22:00,
2013-02-08 16:32:00,23.0,19.0,-100.00,ENE,71,10.0,24.0,83,0.00,,,0.00,48.000000,,2013-02-08 21:32:00,
2013-02-08 16:52:00,23.0,18.0,-100.00,ENE,68,11.0,28.0,81,0.00,,,0.00,16.000000,,2013-02-08 21:52:00,
2013-02-08 17:02:00,23.0,18.0,-100.00,ENE,68,11.0,28.0,81,0.00,,,0.00,16.000000,,2013-02-08 22:02:00,
2013-02-08 17:12:00,23.0,18.0,-100.00,ENE,68,11.0,28.0,81,0.00,,,0.00,16.000000,,2013-02-08 22:12:00,
2013-02-08 17:22:00,23.0,18.0,-100.00,ENE,68,11.0,28.0,81,0.00,,,0.00,16.000000,,2013-02-08 22:22:00,
2013-02-08 17:32:00,23.0,18.0,-100.00,ENE,68,11.0,28.0,81,0.00,,,0.00,16.000000,,2013-02-08 22:32:00,
2013-02-08 17:52:00,23.0,15.0,-100.00,ENE,69,13.0,26.0,71,0.00,,,0.00,1.000000,,2013-02-08 22:52:00,
2013-02-08 18:02:00,23.0,15.0,-100.00,ENE,69,13.0,26.0,71,0.00,,,0.00,1.000000,,2013-02-08 23:02:00,
2013-02-08 18:12:00,23.0,15.0,-100.00,ENE,69,13.0,26.0,71,0.00,,,0.00,1.000000,,2013-02-08 23:12:00,
2013-02-08 18:22:00,23.0,15.0,-100.00,ENE,69,13.0,26.0,71,0.00,,,0.00,1.000000,,2013-02-08 23:22:00,
2013-02-08 18:32:00,23.0,15.0,-100.00,ENE,69,13.0,26.0,71,0.00,,,0.00,1.000000,,2013-02-08 23:32:00,
2013-02-08 19:02:00,23.0,17.0,-100.00,ENE,58,13.0,30.0,78,0.00,,,0.00,0.000000,,2013-02-09 00:02:00,
2013-02-08 19:12:00,23.0,17.0,-100.00,ENE,58,13.0,30.0,78,0.00,,,0.00,0.000000,,2013-02-09 00:12:00,
2013-02-08 19:22:00,23.0,17.0,-100.00,ENE,58,13.0,30.0,78,0.00,,,0.00,0.000000,,2013-02-09 00:22:00,
2013-02-08 19:32:00,23.0,17.0,-100.00,ENE,58,13.0,30.0,78,0.00,,,0.00,0.000000,,2013-02-09 00:32:00,
2013-02-08 20:02:00,22.0,18.0,-100.00,NE,45,13.0,25.0,85,0.00,,,0.00,0.000000,,2013-02-09 01:02:00,
2013-02-08 20:12:00,22.0,18.0,-100.00,NE,45,13.0,25.0,85,0.00,,,0.00,0.000000,,2013-02-09 01:12:00,
2013-02-08 20:22:00,22.0,18.0,-100.00,NE,45,13.0,25.0,85,0.00,,,0.00,0.000000,,2013-02-09 01:22:00,
2013-02-08 20:32:00,22.0,18.0,-100.00,NE,45,13.0,25.0,85,0.00,,,0.00,0.000000,,2013-02-09 01:32:00,
2013-02-08 21:02:00,21.0,18.0,-100.00,NE,49,12.0,31.0,89,0.00,,,0.00,0.000000,,2013-02-09 02:02:00,
2013-02-08 21:11:00,21.0,18.0,-100.00,NE,49,12.0,31.0,89,0.00,,,0.00,0.000000,,2013-02-09 02:11:00,
2013-02-08 21:22:00,21.0,18.0,-100.00,NE,49,12.0,31.0,89,0.00,,,0.00,0.000000,,2013-02-09 02:22:00,
2013-02-08 21:32:00,21.0,18.0,-100.00,NE,49,12.0,31.0,89,0.00,,,0.00,0.000000,,2013-02-09 02:32:00,
2013-02-08 21:53:00,20.0,17.0,-100.00,NE,47,14.0,28.0,88,0.00,,,0.00,0.000000,,2013-02-09 02:53:00,
2013-02-08 22:02:00,20.0,17.0,-100.00,NE,47,14.0,28.0,88,0.00,,,0.00,0.000000,,2013-02-09 03:02:00,
2013-02-08 22:11:00,20.0,17.0,-100.00,NE,47,14.0,28.0,88,0.00,,,0.00,0.000000,,2013-02-09 03:11:00,
2013-02-08 22:22:00,20.0,17.0,-100.00,NE,47,14.0,28.0,88,0.00,,,0.00,0.000000,,2013-02-09 03:22:00,
2013-02-08 22:32:00,20.0,17.0,-100.00,NE,47,14.0,28.0,88,0.00,,,0.00,0.000000,,2013-02-09 03:32:00,
2013-02-08 23:03:00,18.0,15.0,-100.00,NE,38,14.0,26.0,88,0.00,,,0.00,0.000000,,2013-02-09 04:03:00,
2013-02-08 23:12:00,18.0,15.0,-100.00,NE,38,14.0,26.0,88,0.00,,,0.00,0.000000,,2013-02-09 04:12:00,
2013-02-08 23:23:00,18.0,15.0,-100.00,NE,38,14.0,26.0,88,0.00,,,0.00,0.000000,,2013-02-09 04:23:00,
2013-02-08 23:32:00,18.0,15.0,-100.00,NE,38,14.0,26.0,88,0.00,,,0.00,0.000000,,2013-02-09 04:32:00,